Time;durP1;ratioP1;P1;durP2;ratioP2;P2;SDS_P1;SDS_P2;PMS_P1;PMS_P2;Temp;Humidity;BMP_temperature;BMP_pressure;BME280_temperature;BME280_humidity;BME280_pressure;Samples;Min_cycle;Max_cycle;Signal;HPM_P1;HPM_P2
2022/01/21 00:00:20;;;;;;;1.35;0.82;;;23.80;47.40;;;;;;5029321;28;20220;-43
2022/01/21 00:02:51;;;;;;;0.95;0.75;;;23.80;47.30;;;;;;5029380;28;20208;-50
2022/01/21 00:05:23;;;;;;;2.05;0.98;;;23.80;47.30;;;;;;5028997;28;20220;-44
2022/01/21 00:07:53;;;;;;;1.25;0.77;;;23.90;47.20;;;;;;5029428;28;20199;-48
2022/01/21 00:10:24;;;;;;;1.70;0.70;;;23.90;47.20;;;;;;5029109;28;20603;-44
2022/01/21 00:12:57;;;;;;;1.67;0.80;;;24.00;47.30;;;;;;5029436;28;20200;-43
2022/01/21 00:15:28;;;;;;;1.42;0.77;;;24.00;47.20;;;;;;5029240;28;20229;-51
2022/01/21 00:17:58;;;;;;;0.80;0.52;;;24.00;47.20;;;;;;5028598;28;20204;-41
2022/01/21 00:31:22;;;;;;;1.55;0.55;;;24.20;47.10;;;;;;5027944;28;20273;-41
2022/01/21 00:33:53;;;;;;;1.05;0.82;;;24.20;47.00;;;;;;5028402;28;20761;-48
2022/01/21 00:36:23;;;;;;;1.10;0.80;;;24.20;46.90;;;;;;5028139;28;20260;-46
2022/01/21 00:38:56;;;;;;;2.30;0.70;;;24.20;46.80;;;;;;5028192;28;20864;-47
2022/01/21 00:41:30;;;;;;;1.52;0.70;;;24.30;46.90;;;;;;5029349;28;20731;-52
2022/01/21 00:44:03;;;;;;;1.63;0.70;;;24.30;46.80;;;;;;5028967;28;20223;-50
2022/01/21 00:46:34;;;;;;;2.47;0.95;;;24.30;46.80;;;;;;5029063;28;20204;-46
2022/01/21 00:49:04;;;;;;;0.85;0.70;;;24.30;46.80;;;;;;5028054;28;20200;-44
2022/01/21 00:51:35;;;;;;;1.63;0.70;;;24.40;46.80;;;;;;5027451;28;20232;-43
2022/01/21 00:54:06;;;;;;;0.98;0.60;;;24.40;46.70;;;;;;5027053;28;20625;-43
2022/01/21 00:56:36;;;;;;;1.17;0.60;;;24.40;46.70;;;;;;5027597;28;20247;-41
2022/01/21 00:59:09;;;;;;;1.20;0.63;;;24.50;46.80;;;;;;5027579;28;20222;-40
2022/01/21 01:01:39;;;;;;;0.80;0.70;;;24.50;46.70;;;;;;5028949;28;20196;-51
2022/01/21 01:04:10;;;;;;;1.08;0.60;;;24.50;46.70;;;;;;5028665;28;20258;-40
2022/01/21 01:06:41;;;;;;;1.35;0.90;;;24.60;46.70;;;;;;5026601;28;20197;-47
2022/01/21 01:09:11;;;;;;;0.40;0.40;;;24.60;46.60;;;;;;5027863;28;20544;-49
2022/01/21 01:11:53;;;;;;;0.65;0.57;;;24.60;46.60;;;;;;5026422;28;20695;-46
2022/01/21 01:20:01;;;;;;;1.48;0.60;;;24.70;46.40;;;;;;5027438;28;20311;-48
2022/01/21 01:22:40;;;;;;;1.13;0.52;;;24.70;46.30;;;;;;5028542;28;20199;-52
2022/01/21 01:27:59;;;;;;;2.10;0.95;;;24.80;46.30;;;;;;5028170;28;20211;-46
2022/01/21 01:30:33;;;;;;;1.10;0.63;;;24.80;46.30;;;;;;5027535;28;20205;-45
2022/01/21 01:33:06;;;;;;;1.10;0.60;;;24.80;46.30;;;;;;5028414;28;20245;-52
2022/01/21 01:35:39;;;;;;;1.08;0.60;;;24.90;46.50;;;;;;5027610;28;20270;-49
2022/01/21 01:38:33;;;;;;;1.55;0.60;;;24.90;46.50;;;;;;5027820;28;20200;-43
2022/01/21 01:41:08;;;;;;;0.93;0.70;;;24.90;46.60;;;;;;5027626;28;20274;-51
2022/01/21 01:51:51;;;;;;;0.95;0.68;;;25.10;46.50;;;;;;5028020;28;20621;-44
2022/01/21 01:54:22;;;;;;;2.33;0.60;;;25.10;46.40;;;;;;5026509;28;20294;-54
2022/01/21 01:56:55;;;;;;;0.95;0.50;;;25.10;46.40;;;;;;5025345;28;20277;-48
2022/01/21 01:59:26;;;;;;;1.10;0.70;;;25.10;46.30;;;;;;5027946;28;20278;-53
2022/01/21 02:02:01;;;;;;;1.00;0.57;;;25.20;46.30;;;;;;5026705;28;20192;-46
2022/01/21 02:04:31;;;;;;;0.80;0.63;;;25.20;46.20;;;;;;5026248;28;20285;-50
2022/01/21 02:07:02;;;;;;;1.48;0.60;;;25.30;46.30;;;;;;5027599;28;20204;-48
2022/01/21 02:09:33;;;;;;;1.00;0.68;;;25.20;46.20;;;;;;5025835;28;20660;-46
2022/01/21 02:12:04;;;;;;;1.10;0.60;;;25.30;46.10;;;;;;5027000;28;20253;-52
2022/01/21 02:14:37;;;;;;;1.48;0.65;;;25.30;46.10;;;;;;5026054;28;20224;-43
2022/01/21 02:17:19;;;;;;;1.77;0.80;;;25.30;46.10;;;;;;5027039;28;20250;-42
2022/01/21 02:22:38;;;;;;;1.35;0.70;;;25.40;46.30;;;;;;5026492;28;20199;-57
2022/01/21 02:25:18;;;;;;;2.22;0.70;;;25.40;46.20;;;;;;5046654;23;20223;-47
2022/01/21 02:27:50;;;;;;;1.52;0.60;;;25.40;46.20;;;;;;5043858;28;20282;-44
2022/01/21 02:30:23;;;;;;;1.10;0.70;;;25.50;46.30;;;;;;5042183;28;20188;-48
2022/01/21 02:32:55;;;;;;;0.65;0.45;;;25.50;46.20;;;;;;5044918;28;20195;-44
2022/01/21 02:35:27;;;;;;;1.80;0.40;;;25.50;46.20;;;;;;5042702;28;20734;-55
2022/01/21 02:38:01;;;;;;;1.30;0.60;;;25.60;46.30;;;;;;5042071;28;20192;-49
2022/01/21 02:40:31;;;;;;;1.52;0.80;;;25.60;46.20;;;;;;5044019;28;20245;-43
2022/01/21 02:43:02;;;;;;;1.83;0.70;;;25.60;46.20;;;;;;5043522;28;20282;-43
2022/01/21 02:45:32;;;;;;;0.90;0.50;;;25.70;46.10;;;;;;5043110;28;20215;-42
2022/01/21 02:48:04;;;;;;;1.08;0.55;;;25.70;46.10;;;;;;5045796;28;20195;-46
2022/01/21 02:50:35;;;;;;;1.05;0.60;;;25.70;46.00;;;;;;5041798;28;20202;-47
2022/01/21 02:53:22;;;;;;;0.68;0.60;;;25.70;46.00;;;;;;5041518;28;20199;-43
2022/01/21 02:55:53;;;;;;;1.20;0.70;;;25.80;46.00;;;;;;5041909;28;20227;-44
2022/01/21 02:58:24;;;;;;;1.23;0.50;;;25.80;45.90;;;;;;5039138;28;20547;-45
2022/01/21 03:00:55;;;;;;;1.92;0.60;;;25.80;46.00;;;;;;5042404;28;20585;-47
2022/01/21 03:03:26;;;;;;;1.45;0.80;;;25.80;46.00;;;;;;5043433;28;20203;-43
2022/01/21 03:05:56;;;;;;;0.57;0.55;;;25.80;45.90;;;;;;5042650;28;20262;-50
2022/01/21 03:08:29;;;;;;;1.00;0.80;;;25.90;45.90;;;;;;5043494;28;20242;-42
2022/01/21 03:10:59;;;;;;;1.17;0.63;;;25.90;45.80;;;;;;5041307;28;20218;-43
2022/01/21 03:13:30;;;;;;;0.85;0.50;;;26.00;46.00;;;;;;5043329;28;20199;-41
2022/01/21 03:16:01;;;;;;;1.65;0.70;;;26.00;45.90;;;;;;5042080;28;20250;-44
2022/01/21 03:18:31;;;;;;;1.40;0.60;;;26.10;45.90;;;;;;5043240;28;20196;-45
2022/01/21 03:21:02;;;;;;;1.33;0.70;;;26.10;45.80;;;;;;5042603;28;20273;-47
2022/01/21 03:23:34;;;;;;;1.55;0.80;;;26.10;45.70;;;;;;5044318;28;20199;-41
2022/01/21 03:26:06;;;;;;;1.15;0.60;;;26.10;45.80;;;;;;5041622;28;20214;-40
2022/01/21 03:28:36;;;;;;;1.98;0.65;;;26.20;45.80;;;;;;5042130;28;20255;-52
2022/01/21 03:31:07;;;;;;;1.20;0.82;;;26.20;45.90;;;;;;5043109;28;20195;-52
2022/01/21 03:33:37;;;;;;;1.48;0.70;;;26.20;45.90;;;;;;5042944;28;20207;-48
2022/01/21 03:36:08;;;;;;;2.05;1.00;;;26.20;45.90;;;;;;5044035;28;20200;-48
2022/01/21 03:38:41;;;;;;;2.10;1.10;;;26.30;46.00;;;;;;5043755;28;20250;-47
2022/01/21 03:41:13;;;;;;;2.00;0.80;;;26.20;45.80;;;;;;5043716;28;20281;-52
2022/01/21 03:43:43;;;;;;;2.47;1.02;;;26.30;45.90;;;;;;5046660;28;20211;-49
2022/01/21 03:46:14;;;;;;;3.55;0.95;;;26.30;45.80;;;;;;5046481;28;20268;-49
2022/01/21 03:48:47;;;;;;;2.15;0.90;;;26.30;45.80;;;;;;5045504;28;20199;-43
2022/01/21 03:51:18;;;;;;;2.03;0.75;;;26.30;45.90;;;;;;5044515;28;20285;-54
2022/01/21 03:53:52;;;;;;;4.45;1.08;;;26.30;46.00;;;;;;5046789;28;20200;-40
2022/01/21 03:56:22;;;;;;;0.90;0.63;;;26.40;46.00;;;;;;5047763;28;20293;-49
2022/01/21 03:58:53;;;;;;;1.60;0.88;;;26.40;46.00;;;;;;5046171;28;20199;-52
2022/01/21 04:01:24;;;;;;;1.65;0.75;;;26.40;46.00;;;;;;5043176;28;20223;-51
2022/01/21 04:03:55;;;;;;;2.55;0.75;;;26.40;45.90;;;;;;5045234;28;20686;-41
2022/01/21 04:06:26;;;;;;;1.42;0.70;;;26.50;46.00;;;;;;5046699;28;20254;-42
2022/01/21 04:08:58;;;;;;;2.33;0.70;;;26.50;46.00;;;;;;5046851;28;20199;-49
2022/01/21 04:11:29;;;;;;;2.47;0.80;;;26.50;46.00;;;;;;5046096;28;20195;-50
2022/01/21 04:13:59;;;;;;;2.25;0.68;;;26.50;45.90;;;;;;5048035;28;20211;-47
2022/01/21 04:16:30;;;;;;;1.60;0.88;;;26.50;45.80;;;;;;5045573;28;20207;-41
2022/01/21 04:19:00;;;;;;;2.70;1.00;;;26.50;45.70;;;;;;5045223;28;20537;-52
2022/01/21 04:21:31;;;;;;;3.05;1.00;;;26.50;45.70;;;;;;5045440;28;20810;-45
2022/01/21 04:24:03;;;;;;;2.08;0.90;;;26.50;45.70;;;;;;5044511;28;20838;-51
2022/01/21 04:26:34;;;;;;;2.97;0.95;;;26.60;45.60;;;;;;5047489;28;20200;-42
2022/01/21 04:29:04;;;;;;;3.65;0.85;;;26.60;45.60;;;;;;5044361;28;20253;-43
2022/01/21 04:31:35;;;;;;;1.55;0.88;;;26.60;45.60;;;;;;5046060;28;20211;-49
2022/01/21 04:34:06;;;;;;;2.28;1.05;;;26.60;45.60;;;;;;5044120;28;20223;-42
2022/01/21 04:36:36;;;;;;;5.18;1.27;;;26.60;45.60;;;;;;5045674;28;20757;-41
2022/01/21 04:39:15;;;;;;;3.42;1.10;;;26.60;45.60;;;;;;5039854;28;20648;-46
2022/01/21 04:47:16;;;;;;;3.40;1.10;;;26.60;45.60;;;;;;5044568;28;20223;-41
2022/01/21 04:47:32;;;;;;;3.30;0.90;;;26.60;45.70;;;;;;5047915;28;20572;-43
2022/01/21 04:50:08;;;;;;;2.33;1.13;;;26.70;45.80;;;;;;5046652;28;20705;-41
2022/01/21 04:52:40;;;;;;;4.35;1.10;;;26.70;45.80;;;;;;5046584;28;20210;-41
2022/01/21 04:55:14;;;;;;;2.03;0.98;;;26.70;45.80;;;;;;5045382;28;20277;-49
2022/01/21 04:57:44;;;;;;;3.15;1.00;;;26.70;45.80;;;;;;5042611;28;20202;-49
2022/01/21 05:00:15;;;;;;;2.58;1.05;;;26.70;45.70;;;;;;5043121;28;20253;-46
2022/01/21 05:02:46;;;;;;;3.53;1.20;;;26.70;45.60;;;;;;5042143;28;20199;-41
2022/01/21 05:05:17;;;;;;;4.63;1.30;;;26.70;45.60;;;;;;5044359;28;20270;-40
2022/01/21 05:07:47;;;;;;;6.15;1.27;;;26.70;45.60;;;;;;5045654;28;20191;-42
2022/01/21 05:10:20;;;;;;;3.05;1.10;;;26.70;45.60;;;;;;5043943;28;20268;-47
2022/01/21 05:12:50;;;;;;;2.88;1.23;;;26.70;45.70;;;;;;5043455;28;20242;-40
2022/01/21 05:15:27;;;;;;;3.72;1.50;;;26.70;45.80;;;;;;5042917;28;20694;-41
2022/01/21 05:17:57;;;;;;;5.40;1.70;;;26.70;45.80;;;;;;5041417;28;20218;-41
2022/01/21 05:20:28;;;;;;;3.95;1.35;;;26.70;45.80;;;;;;5042178;28;20273;-44
2022/01/21 05:22:58;;;;;;;6.40;1.30;;;26.70;45.90;;;;;;5045594;28;20199;-41
2022/01/21 05:25:31;;;;;;;3.88;1.30;;;26.70;45.90;;;;;;5041785;28;20227;-46
2022/01/21 05:28:01;;;;;;;3.90;1.20;;;26.70;45.90;;;;;;5046204;28;20196;-41
2022/01/21 05:30:33;;;;;;;5.38;1.52;;;26.70;45.90;;;;;;5044927;28;20196;-41
2022/01/21 05:33:03;;;;;;;4.50;1.48;;;26.70;46.00;;;;;;5043955;28;20286;-42
2022/01/21 05:35:34;;;;;;;3.95;1.48;;;26.70;46.00;;;;;;5044432;28;20288;-47
2022/01/21 05:38:04;;;;;;;3.47;1.30;;;26.70;46.00;;;;;;5043959;28;20204;-40
2022/01/21 05:40:37;;;;;;;5.63;1.40;;;26.70;46.10;;;;;;5043888;28;20278;-52
2022/01/21 05:43:08;;;;;;;5.15;1.48;;;26.70;46.00;;;;;;5047517;28;20238;-40
2022/01/21 05:48:25;;;;;;;4.30;1.60;;;26.70;46.00;;;;;;5043178;28;20262;-41
2022/01/21 05:50:56;;;;;;;3.80;1.50;;;26.70;45.90;;;;;;5043559;28;20268;-46
2022/01/21 05:53:26;;;;;;;6.25;1.85;;;26.70;45.90;;;;;;5043532;28;20203;-40
2022/01/21 05:56:01;;;;;;;3.45;1.50;;;26.70;45.90;;;;;;5043978;28;20219;-42
2022/01/21 05:58:32;;;;;;;3.65;1.60;;;26.60;45.90;;;;;;5045812;28;20231;-40
2022/01/21 06:01:03;;;;;;;3.95;1.40;;;26.60;45.90;;;;;;5044472;28;20324;-41
2022/01/21 06:03:34;;;;;;;5.85;1.65;;;26.60;46.00;;;;;;5045166;28;20187;-47
2022/01/21 06:06:05;;;;;;;4.40;1.50;;;26.60;46.00;;;;;;5038805;28;20204;-45
2022/01/21 06:08:36;;;;;;;4.88;1.83;;;26.60;46.00;;;;;;5042621;28;20203;-41
2022/01/21 06:11:08;;;;;;;5.43;1.90;;;26.60;46.10;;;;;;5040961;28;20324;-40
2022/01/21 06:13:39;;;;;;;4.50;1.60;;;26.50;46.00;;;;;;5045075;28;20208;-47
2022/01/21 06:16:09;;;;;;;5.28;1.85;;;26.50;46.00;;;;;;5045719;28;20291;-52
2022/01/21 06:18:40;;;;;;;5.60;2.00;;;26.50;46.10;;;;;;5044155;28;20199;-41
2022/01/21 06:21:10;;;;;;;4.45;1.50;;;26.50;46.10;;;;;;5040804;28;20595;-41
2022/01/21 06:23:41;;;;;;;4.38;1.58;;;26.50;46.10;;;;;;5043110;28;20269;-47
2022/01/21 06:26:14;;;;;;;4.20;1.80;;;26.50;46.10;;;;;;5041397;28;20203;-45
2022/01/21 06:28:44;;;;;;;4.63;1.88;;;26.40;46.10;;;;;;5042137;28;20738;-52
2022/01/21 06:31:16;;;;;;;6.07;2.10;;;26.40;46.10;;;;;;5043776;28;20265;-49
2022/01/21 06:33:46;;;;;;;4.55;1.90;;;26.40;46.10;;;;;;5045340;28;20733;-46
2022/01/21 06:36:17;;;;;;;8.25;2.10;;;26.40;46.10;;;;;;5045116;28;20195;-42
2022/01/21 06:38:47;;;;;;;5.55;1.80;;;26.40;46.10;;;;;;5042120;28;20249;-42
2022/01/21 06:41:20;;;;;;;4.07;1.88;;;26.40;46.10;;;;;;5040742;28;20309;-51
2022/01/21 06:43:51;;;;;;;4.50;2.03;;;26.30;46.10;;;;;;5044413;28;20651;-47
2022/01/21 06:46:21;;;;;;;4.68;1.80;;;26.30;46.10;;;;;;5043298;28;20638;-43
2022/01/21 06:48:53;;;;;;;7.15;1.92;;;26.30;46.20;;;;;;5043834;28;20196;-40
2022/01/21 06:51:32;;;;;;;4.28;1.70;;;26.40;46.20;;;;;;5043993;28;20778;-40
2022/01/21 06:54:02;;;;;;;4.32;1.60;;;26.30;46.10;;;;;;5039796;28;20229;-43
2022/01/21 06:56:35;;;;;;;4.57;1.60;;;26.30;46.10;;;;;;5043613;28;20253;-42
2022/01/21 06:59:06;;;;;;;3.53;1.50;;;26.30;46.10;;;;;;5041801;28;20656;-40
2022/01/21 07:01:36;;;;;;;3.00;1.60;;;26.30;46.10;;;;;;5042722;28;20308;-52
2022/01/21 07:04:07;;;;;;;6.88;1.70;;;26.30;46.10;;;;;;5042153;28;20718;-43
2022/01/21 07:06:37;;;;;;;3.60;1.90;;;26.30;46.10;;;;;;5041964;28;20200;-44
2022/01/21 07:09:08;;;;;;;6.10;1.92;;;26.30;46.10;;;;;;5043194;28;20199;-42
2022/01/21 07:11:40;;;;;;;3.75;1.60;;;26.30;46.10;;;;;;5039608;28;20299;-41
2022/01/21 07:14:11;;;;;;;5.25;1.63;;;26.30;46.00;;;;;;5042927;28;20273;-43
2022/01/21 07:16:42;;;;;;;3.38;1.60;;;26.30;46.00;;;;;;5041893;28;20203;-54
2022/01/21 07:19:13;;;;;;;3.40;1.70;;;26.30;46.00;;;;;;5046646;28;20199;-43
2022/01/21 07:21:44;;;;;;;4.47;1.90;;;26.30;46.00;;;;;;5046859;28;20689;-53
2022/01/21 07:24:14;;;;;;;4.45;1.67;;;26.30;46.00;;;;;;5046710;28;20285;-45
2022/01/21 07:26:47;;;;;;;4.18;1.40;;;26.30;45.90;;;;;;5046058;28;20264;-43
2022/01/21 07:29:17;;;;;;;3.50;1.30;;;26.30;46.00;;;;;;5045614;28;20651;-48
2022/01/21 07:31:51;;;;;;;3.25;1.48;;;26.30;46.00;;;;;;5045382;28;20206;-45
2022/01/21 07:34:22;;;;;;;4.60;2.08;;;26.30;46.00;;;;;;5044864;28;20246;-42
2022/01/21 07:36:52;;;;;;;8.35;2.05;;;26.30;46.20;;;;;;5046997;28;20257;-50
2022/01/21 07:39:23;;;;;;;9.70;2.65;;;26.20;46.40;;;;;;5038930;28;20196;-44
2022/01/21 07:41:56;;;;;;;8.10;2.25;;;26.20;46.70;;;;;;5013798;28;20290;-50
2022/01/21 07:44:27;;;;;;;7.82;2.15;;;26.20;46.70;;;;;;5029412;28;20630;-47
2022/01/21 07:46:58;;;;;;;4.30;1.80;;;26.20;47.30;;;;;;5028950;28;20200;-47
2022/01/21 07:49:28;;;;;;;7.45;2.28;;;26.10;46.60;;;;;;5028272;28;20193;-50
2022/01/21 07:51:59;;;;;;;4.97;1.98;;;26.10;46.60;;;;;;5028629;28;20622;-44
2022/01/21 07:54:30;;;;;;;6.15;2.00;;;26.10;46.60;;;;;;5028619;28;20303;-48
2022/01/21 07:57:02;;;;;;;5.28;1.90;;;26.10;46.60;;;;;;5031222;28;20204;-45
2022/01/21 07:59:33;;;;;;;4.75;2.15;;;26.00;46.60;;;;;;5030667;28;20206;-50
2022/01/21 08:02:03;;;;;;;6.85;1.95;;;26.00;46.60;;;;;;5029019;28;20229;-43
2022/01/21 08:04:34;;;;;;;8.43;1.92;;;26.00;47.00;;;;;;5029384;28;20297;-43
2022/01/21 08:07:05;;;;;;;6.07;1.88;;;26.00;46.70;;;;;;5030006;28;20268;-42
2022/01/21 08:09:36;;;;;;;5.93;1.90;;;26.00;46.70;;;;;;5029574;28;20257;-49
2022/01/21 08:12:09;;;;;;;3.95;1.40;;;25.90;46.60;;;;;;5022176;28;20200;-44
2022/01/21 08:14:39;;;;;;;4.57;1.70;;;25.90;46.60;;;;;;5030359;28;20213;-49
2022/01/21 08:17:10;;;;;;;3.28;1.65;;;25.90;46.70;;;;;;5030198;28;20258;-48
2022/01/21 08:19:41;;;;;;;4.53;1.90;;;25.90;46.70;;;;;;5028972;28;20204;-51
2022/01/21 08:22:11;;;;;;;3.92;1.48;;;25.80;46.60;;;;;;5029096;28;20216;-43
2022/01/21 08:24:46;;;;;;;4.35;1.52;;;25.80;46.70;;;;;;5026130;28;20692;-47
2022/01/21 08:27:18;;;;;;;4.05;1.77;;;25.80;46.70;;;;;;5028940;28;20200;-41
2022/01/21 08:29:49;;;;;;;5.45;1.52;;;25.70;46.70;;;;;;5029270;28;20208;-43
2022/01/21 08:32:22;;;;;;;2.25;1.35;;;25.70;46.80;;;;;;5031139;28;20211;-49
2022/01/21 08:34:52;;;;;;;4.22;1.45;;;25.70;46.80;;;;;;5029528;28;20212;-50
2022/01/21 08:37:23;;;;;;;5.85;2.00;;;25.60;46.80;;;;;;5031307;28;20250;-41
2022/01/21 08:39:53;;;;;;;5.47;1.42;;;25.60;46.80;;;;;;5029473;28;20207;-51
2022/01/21 08:42:27;;;;;;;3.40;1.67;;;25.60;46.90;;;;;;5029721;28;20273;-44
2022/01/21 08:44:57;;;;;;;5.70;1.98;;;25.60;46.90;;;;;;5030075;28;20741;-43
2022/01/21 08:47:28;;;;;;;4.72;1.90;;;25.50;46.80;;;;;;5030398;28;20610;-49
2022/01/21 08:50:01;;;;;;;3.85;1.67;;;25.50;46.90;;;;;;5030970;28;20266;-53
2022/01/21 08:52:36;;;;;;;4.90;1.60;;;25.50;46.90;;;;;;5028319;28;20249;-48
2022/01/21 08:55:07;;;;;;;3.20;1.50;;;25.50;46.90;;;;;;5028571;28;20223;-50
2022/01/21 08:57:41;;;;;;;4.05;1.50;;;25.50;46.90;;;;;;5035136;28;20274;-51
2022/01/21 09:00:14;;;;;;;4.15;1.50;;;25.50;47.00;;;;;;5046617;28;20601;-47
2022/01/21 09:02:45;;;;;;;3.67;1.65;;;25.40;46.90;;;;;;5045409;28;20228;-54
2022/01/21 09:05:16;;;;;;;5.10;1.73;;;25.40;47.00;;;;;;5045777;28;20228;-53
2022/01/21 09:07:47;;;;;;;4.60;1.88;;;25.40;47.00;;;;;;5046832;28;20261;-56
2022/01/21 09:10:17;;;;;;;2.97;1.40;;;25.40;47.10;;;;;;5046657;28;20200;-48
2022/01/21 09:12:50;;;;;;;3.53;1.90;;;25.30;47.00;;;;;;5045805;28;20195;-53
2022/01/21 09:15:25;;;;;;;3.28;1.73;;;25.30;47.00;;;;;;5043969;28;20261;-47
2022/01/21 09:18:02;;;;;;;4.10;1.80;;;25.30;47.10;;;;;;5042516;28;20214;-47
2022/01/21 09:20:33;;;;;;;3.45;1.58;;;25.20;47.10;;;;;;5045102;28;20281;-42
2022/01/21 09:23:04;;;;;;;2.97;1.48;;;25.20;47.10;;;;;;5044504;28;20216;-44
2022/01/21 09:25:34;;;;;;;4.18;1.50;;;25.20;47.10;;;;;;5043598;28;20710;-41
2022/01/21 09:28:08;;;;;;;4.47;1.33;;;25.20;47.10;;;;;;5042308;28;20196;-42
2022/01/21 09:30:38;;;;;;;2.97;1.30;;;25.10;47.10;;;;;;5042378;28;20210;-44
2022/01/21 09:33:09;;;;;;;2.80;1.20;;;25.10;47.10;;;;;;5046569;28;20670;-42
2022/01/21 09:38:22;;;;;;;3.75;1.52;;;25.10;47.20;;;;;;5027617;28;20220;-49
2022/01/21 09:40:53;;;;;;;3.15;1.45;;;25.00;47.20;;;;;;5025572;28;20267;-45
2022/01/21 09:43:26;;;;;;;3.05;1.40;;;25.00;47.20;;;;;;5028032;28;20300;-53
2022/01/21 09:45:59;;;;;;;2.45;1.40;;;25.00;47.20;;;;;;5028011;28;20211;-52
2022/01/21 09:48:35;;;;;;;2.97;1.35;;;25.00;47.20;;;;;;5028030;28;20719;-42
2022/01/21 09:51:06;;;;;;;3.85;1.40;;;25.00;47.20;;;;;;5028195;28;20208;-42
2022/01/21 09:53:38;;;;;;;2.90;1.40;;;24.90;47.20;;;;;;5028439;28;20288;-46
2022/01/21 09:56:10;;;;;;;2.92;1.40;;;24.90;47.20;;;;;;5028006;28;20846;-42
2022/01/21 09:58:46;;;;;;;3.10;1.40;;;24.90;47.20;;;;;;5027176;28;20204;-48
2022/01/21 10:01:20;;;;;;;3.60;1.55;;;24.90;47.30;;;;;;5027874;28;20210;-52
2022/01/21 10:03:52;;;;;;;2.25;1.30;;;24.80;47.30;;;;;;5028166;28;20229;-42
2022/01/21 10:06:28;;;;;;;3.22;1.60;;;24.80;47.30;;;;;;5028658;28;20227;-49
2022/01/21 10:08:59;;;;;;;3.00;1.40;;;24.80;47.30;;;;;;5027314;28;20253;-52
2022/01/21 10:11:30;;;;;;;2.90;1.58;;;24.70;47.30;;;;;;5026796;28;20196;-49
2022/01/21 10:14:02;;;;;;;2.63;1.23;;;24.70;47.40;;;;;;5027478;28;20231;-43
2022/01/21 10:16:33;;;;;;;3.20;1.30;;;24.70;47.40;;;;;;5028283;28;20202;-44
2022/01/21 10:19:11;;;;;;;2.85;1.50;;;24.60;47.40;;;;;;5026992;28;20196;-42
2022/01/21 10:21:45;;;;;;;1.92;1.10;;;24.60;47.40;;;;;;5027894;28;20235;-42
2022/01/21 10:24:16;;;;;;;2.83;1.50;;;24.60;47.30;;;;;;5026408;28;20227;-51
2022/01/21 10:26:52;;;;;;;2.80;1.35;;;24.60;47.40;;;;;;5027581;28;20207;-47
2022/01/21 10:29:25;;;;;;;2.78;1.40;;;24.60;47.40;;;;;;5028210;28;20648;-51
2022/01/21 10:31:57;;;;;;;2.25;1.13;;;24.50;47.40;;;;;;5028350;28;20202;-46
2022/01/21 10:34:32;;;;;;;2.40;1.17;;;24.60;47.40;;;;;;5027000;28;20266;-47
2022/01/21 10:37:07;;;;;;;2.15;1.38;;;24.50;47.40;;;;;;5038246;23;20560;-46
2022/01/21 10:39:58;;;;;;;2.97;1.20;;;24.50;47.40;;;;;;5027958;28;20770;-46
2022/01/21 10:42:29;;;;;;;3.05;1.60;;;24.50;47.50;;;;;;5027719;28;20254;-42
2022/01/21 10:45:02;;;;;;;2.60;1.55;;;24.40;47.40;;;;;;5027980;28;20212;-50
2022/01/21 10:47:34;;;;;;;4.32;1.60;;;24.40;47.40;;;;;;5027756;28;20338;-44
2022/01/21 10:50:08;;;;;;;4.22;1.50;;;24.40;47.50;;;;;;5027906;28;20196;-47
2022/01/21 10:52:41;;;;;;;2.50;1.60;;;24.30;47.50;;;;;;5027145;28;20671;-45
2022/01/21 10:55:30;;;;;;;2.95;1.50;;;24.30;47.50;;;;;;5027907;28;20220;-50
2022/01/21 10:58:11;;;;;;;2.88;1.60;;;24.30;47.50;;;;;;5030094;28;20206;-41
2022/01/21 11:01:00;;;;;;;3.28;1.48;;;24.30;47.60;;;;;;5029914;28;20253;-42
2022/01/21 11:03:32;;;;;;;3.63;1.42;;;24.20;47.60;;;;;;5028814;28;20231;-43
2022/01/21 11:06:19;;;;;;;2.72;1.50;;;24.20;47.50;;;;;;5028656;28;20208;-47
2022/01/21 11:08:50;;;;;;;2.72;1.50;;;24.20;47.60;;;;;;5026378;28;20279;-41
2022/01/21 11:11:25;;;;;;;2.70;1.50;;;24.20;47.60;;;;;;5027826;28;20200;-42
2022/01/21 11:13:56;;;;;;;4.18;1.60;;;24.10;47.60;;;;;;5028654;28;20621;-50
2022/01/21 11:16:36;;;;;;;2.88;1.55;;;24.10;47.60;;;;;;5028295;28;20258;-41
2022/01/21 11:19:10;;;;;;;2.63;1.45;;;24.10;47.60;;;;;;5026409;28;20284;-44
2022/01/21 11:21:54;;;;;;;4.43;1.70;;;24.10;47.70;;;;;;5025449;28;20204;-47
2022/01/21 11:24:25;;;;;;;2.97;1.45;;;24.00;47.60;;;;;;5026345;28;20676;-45
2022/01/21 11:27:18;;;;;;;3.65;1.40;;;24.00;47.70;;;;;;5024970;28;20200;-53
2022/01/21 11:29:49;;;;;;;2.47;1.50;;;24.00;47.70;;;;;;5026484;28;20211;-42
2022/01/21 11:32:22;;;;;;;2.55;1.27;;;24.00;47.70;;;;;;5025873;28;20246;-47
2022/01/21 11:34:53;;;;;;;3.95;1.70;;;23.90;47.70;;;;;;5028366;28;20231;-51
2022/01/21 11:37:25;;;;;;;2.92;1.77;;;23.90;47.80;;;;;;5029108;28;20733;-42
2022/01/21 11:39:56;;;;;;;2.58;1.80;;;23.80;47.70;;;;;;5028608;28;20266;-48
2022/01/21 11:42:27;;;;;;;3.92;1.67;;;23.80;47.80;;;;;;5027906;28;20309;-46
2022/01/21 11:45:14;;;;;;;2.65;1.60;;;23.80;47.80;;;;;;5028173;28;20224;-47
2022/01/21 11:48:11;;;;;;;2.78;1.67;;;23.80;47.80;;;;;;5027743;28;20261;-45
2022/01/21 11:50:42;;;;;;;3.55;1.50;;;23.70;47.80;;;;;;5012103;28;20204;-44
2022/01/21 11:53:13;;;;;;;2.38;1.30;;;23.80;47.80;;;;;;5028391;28;20193;-50
2022/01/21 11:55:46;;;;;;;3.63;1.48;;;23.70;47.80;;;;;;5027441;28;20212;-48
2022/01/21 11:58:19;;;;;;;2.65;1.33;;;23.70;47.80;;;;;;5028526;28;20726;-43
2022/01/21 12:00:52;;;;;;;3.50;1.85;;;23.70;47.80;;;;;;5028692;28;20196;-41
2022/01/21 12:03:25;;;;;;;2.65;1.60;;;23.60;48.40;;;;;;5029895;28;20219;-44
2022/01/21 12:05:56;;;;;;;4.63;1.80;;;23.60;47.80;;;;;;5031853;28;20696;-44
2022/01/21 12:08:48;;;;;;;3.17;1.45;;;23.60;47.90;;;;;;5031815;28;20241;-50
2022/01/21 12:11:34;;;;;;;3.03;1.58;;;23.60;47.90;;;;;;5031132;28;20196;-51
2022/01/21 12:14:08;;;;;;;2.05;1.30;;;23.60;47.90;;;;;;5030883;28;20227;-45
2022/01/21 12:16:55;;;;;;;2.97;1.63;;;23.50;47.90;;;;;;5031280;28;20287;-41
2022/01/21 12:19:36;;;;;;;2.60;1.63;;;23.50;48.00;;;;;;5031268;28;20211;-50
2022/01/21 12:22:18;;;;;;;3.47;1.50;;;23.50;48.00;;;;;;5031551;28;20779;-43
2022/01/21 12:24:54;;;;;;;3.28;1.45;;;23.50;48.10;;;;;;5015062;28;20278;-41
2022/01/21 12:27:27;;;;;;;3.58;1.67;;;23.40;48.10;;;;;;5031299;28;20203;-53
2022/01/21 12:30:28;;;;;;;3.15;1.40;;;23.40;48.10;;;;;;5031226;28;20203;-42
2022/01/21 12:33:04;;;;;;;4.22;1.77;;;23.40;48.10;;;;;;5031142;28;20204;-47
2022/01/21 12:35:38;;;;;;;4.05;1.20;;;23.40;48.10;;;;;;5029704;28;20303;-41
2022/01/21 12:41:39;;;;;;;2.97;1.40;;;23.30;48.10;;;;;;4998010;28;20342;-45
2022/01/21 12:44:11;;;;;;;3.10;1.55;;;23.30;48.10;;;;;;5029975;28;20234;-41
2022/01/21 12:46:44;;;;;;;2.20;1.02;;;23.30;48.10;;;;;;5031199;28;20200;-42
2022/01/21 12:49:52;;;;;;;3.38;1.60;;;23.30;48.10;;;;;;5031375;28;20192;-43
2022/01/21 12:52:45;;;;;;;1.70;1.13;;;23.20;48.10;;;;;;4969921;28;20206;-40
2022/01/21 12:58:12;;;;;;;2.90;1.40;;;23.20;48.10;;;;;;5021154;28;20282;-45
2022/01/21 13:00:43;;;;;;;2.83;1.38;;;23.20;48.10;;;;;;5030872;28;20237;-50
2022/01/21 13:03:24;;;;;;;2.53;1.30;;;23.20;48.20;;;;;;5019323;28;20759;-41
2022/01/21 13:06:05;;;;;;;1.90;1.33;;;23.20;48.30;;;;;;5030656;28;20273;-40
2022/01/21 13:08:44;;;;;;;2.38;1.30;;;23.10;48.20;;;;;;5014217;28;20242;-40
2022/01/21 13:11:19;;;;;;;3.03;1.48;;;23.10;48.30;;;;;;5030514;28;20203;-40
2022/01/21 13:13:58;;;;;;;2.50;1.35;;;23.10;48.30;;;;;;5030532;28;20567;-50
2022/01/21 13:16:30;;;;;;;3.42;1.38;;;23.00;48.20;;;;;;5030547;28;20196;-40
2022/01/21 13:19:06;;;;;;;2.22;1.40;;;23.00;48.30;;;;;;5030258;28;20196;-41
2022/01/21 13:21:38;;;;;;;3.58;1.45;;;23.00;48.30;;;;;;5030726;28;20260;-41
2022/01/21 13:24:25;;;;;;;1.92;1.30;;;23.00;48.30;;;;;;5030595;28;20291;-50
2022/01/21 13:26:55;;;;;;;2.15;1.30;;;23.00;48.40;;;;;;5030048;28;20204;-46
2022/01/21 13:29:33;;;;;;;2.03;1.30;;;22.90;48.20;;;;;;5030033;28;20197;-51
2022/01/21 13:32:05;;;;;;;2.38;1.40;;;23.00;48.40;;;;;;5028549;28;20204;-50
2022/01/21 13:34:39;;;;;;;3.30;1.40;;;22.90;48.30;;;;;;5029261;28;20220;-44
2022/01/21 13:37:11;;;;;;;2.05;1.10;;;22.90;48.30;;;;;;5030405;28;20209;-48
2022/01/21 13:39:45;;;;;;;2.65;1.42;;;22.90;48.40;;;;;;5023384;28;20196;-40
2022/01/21 13:42:20;;;;;;;2.17;1.00;;;22.90;48.40;;;;;;5028739;28;20269;-51
2022/01/21 13:44:52;;;;;;;2.38;1.33;;;22.90;48.40;;;;;;5030172;28;20227;-51
2022/01/21 13:47:35;;;;;;;2.83;1.30;;;22.90;48.50;;;;;;5029590;28;20289;-40
2022/01/21 13:50:11;;;;;;;2.45;1.45;;;22.80;48.50;;;;;;5014479;28;20192;-54
2022/01/21 13:52:45;;;;;;;2.40;1.27;;;22.80;48.50;;;;;;5029471;28;20262;-49
2022/01/21 13:55:31;;;;;;;2.15;1.33;;;22.80;48.50;;;;;;5029703;28;20421;-49
2022/01/21 13:58:03;;;;;;;1.77;1.30;;;22.80;48.50;;;;;;5029398;28;20215;-45
2022/01/21 14:00:37;;;;;;;1.58;1.13;;;22.80;48.50;;;;;;5030002;28;20724;-52
2022/01/21 14:03:13;;;;;;;3.85;1.63;;;22.70;48.50;;;;;;5029227;28;20224;-48